Time;durP1;ratioP1;P1;durP2;ratioP2;P2;SDS_P1;SDS_P2;PMS_P1;PMS_P2;Temp;Humidity;BMP_temperature;BMP_pressure;BME280_temperature;BME280_humidity;BME280_pressure;Samples;Min_cycle;Max_cycle;Signal;HPM_P1;HPM_P2
2023/02/22 00:00:41;;;;;;;;;;;;;;;5.16;nan;100434.09;4979772;28;20338;-84
2023/02/22 00:03:09;;;;;;;;;;;;;;;5.20;nan;100438.97;4980319;28;19922;-85
2023/02/22 00:05:34;;;;;;;;;;;;;;;5.27;nan;100434.09;4994832;28;19929;-84
2023/02/22 00:07:59;;;;;;;;;;;;;;;5.43;nan;100433.69;4977019;28;19918;-84
2023/02/22 00:10:25;;;;;;;;;;;;;;;5.58;nan;100429.03;4982690;28;20427;-83
2023/02/22 00:12:51;;;;;;;;;;;;;;;5.64;nan;100426.75;4985382;28;19917;-84
2023/02/22 00:15:17;;;;;;;;;;;;;;;5.69;nan;100434.25;4996594;28;20130;-83
2023/02/22 00:17:43;;;;;;;;;;;;;;;5.67;nan;100430.91;4997440;28;19922;-83
2023/02/22 00:20:12;;;;;;;;;;;;;;;5.63;nan;100438.22;4981192;28;19928;-84
2023/02/22 00:22:39;;;;;;;;;;;;;;;5.57;nan;100430.00;4987275;28;19975;-84
2023/02/22 00:25:05;;;;;;;;;;;;;;;5.53;nan;100430.25;4981244;28;19929;-83
2023/02/22 00:27:30;;;;;;;;;;;;;;;5.51;nan;100429.53;4981374;28;20125;-85
2023/02/22 00:29:58;;;;;;;;;;;;;;;5.48;nan;100416.66;4997950;28;19913;-85
2023/02/22 00:32:24;;;;;;;;;;;;;;;5.47;nan;100428.09;4981045;28;19921;-84
2023/02/22 00:34:53;;;;;;;;;;;;;;;5.43;nan;100424.03;4982022;28;19988;-84
2023/02/22 00:37:19;;;;;;;;;;;;;;;5.38;nan;100426.19;4998717;28;19921;-84
2023/02/22 00:39:47;;;;;;;;;;;;;;;5.30;nan;100420.72;4979198;28;20351;-85
2023/02/22 00:42:13;;;;;;;;;;;;;;;5.22;nan;100420.47;4976202;28;19918;-85
2023/02/22 00:44:38;;;;;;;;;;;;;;;5.11;nan;100421.34;4995468;28;20615;-84
2023/02/22 00:47:04;;;;;;;;;;;;;;;4.97;nan;100426.81;4991882;28;19922;-86
2023/02/22 00:49:29;;;;;;;;;;;;;;;4.85;nan;100425.97;4987334;28;20300;-84
2023/02/22 00:51:54;;;;;;;;;;;;;;;4.71;nan;100424.38;4965399;28;19918;-86
2023/02/22 00:54:20;;;;;;;;;;;;;;;4.59;nan;100417.47;4976450;28;19951;-85
2023/02/22 00:56:49;;;;;;;;;;;;;;;4.50;nan;100411.13;4979336;28;19917;-84
2023/02/22 00:59:15;;;;;;;;;;;;;;;4.44;nan;100411.59;4978321;28;19918;-85
2023/02/22 01:01:40;;;;;;;;;;;;;;;4.37;nan;100416.47;4979025;28;19984;-85
2023/02/22 01:04:05;;;;;;;;;;;;;;;4.30;nan;100412.63;4968994;28;20625;-85
2023/02/22 01:06:31;;;;;;;;;;;;;;;4.24;nan;100413.94;4990587;28;19925;-85
2023/02/22 01:08:56;;;;;;;;;;;;;;;4.17;nan;100406.63;4973339;28;19917;-84
2023/02/22 01:11:22;;;;;;;;;;;;;;;4.14;nan;100399.00;4990457;28;19905;-84
2023/02/22 01:13:52;;;;;;;;;;;;;;;4.09;nan;100396.72;4983773;28;19917;-84
2023/02/22 01:16:18;;;;;;;;;;;;;;;4.04;nan;100394.44;5004270;28;20276;-85
2023/02/22 01:18:43;;;;;;;;;;;;;;;4.02;nan;100395.50;4988860;28;19917;-84
2023/02/22 01:21:11;;;;;;;;;;;;;;;3.99;nan;100399.19;5003078;28;19921;-84
2023/02/22 01:23:36;;;;;;;;;;;;;;;3.96;nan;100401.22;5002520;28;19940;-84
2023/02/22 01:26:04;;;;;;;;;;;;;;;3.91;nan;100393.69;4983518;28;19918;-84
2023/02/22 01:28:30;;;;;;;;;;;;;;;3.88;nan;100396.50;4983139;28;19980;-84
2023/02/22 01:30:55;;;;;;;;;;;;;;;3.88;nan;100395.69;4979968;28;19949;-85
2023/02/22 01:33:21;;;;;;;;;;;;;;;3.89;nan;100385.13;4983935;28;19922;-84
2023/02/22 01:35:50;;;;;;;;;;;;;;;3.87;nan;100375.72;4984068;28;19918;-85
2023/02/22 01:38:15;;;;;;;;;;;;;;;3.88;nan;100390.44;4984568;28;19921;-84
2023/02/22 01:40:42;;;;;;;;;;;;;;;3.90;nan;100386.78;4995043;28;19933;-83
2023/02/22 01:43:17;;;;;;;;;;;;;;;3.93;nan;100380.47;4993679;28;19992;-85
2023/02/22 01:45:46;;;;;;;;;;;;;;;3.92;nan;100384.88;4993968;28;19921;-84
2023/02/22 01:48:15;;;;;;;;;;;;;;;3.93;nan;100386.56;4985337;28;20198;-84
2023/02/22 01:50:47;;;;;;;;;;;;;;;3.96;nan;100378.50;4963866;28;19918;-84
2023/02/22 01:53:14;;;;;;;;;;;;;;;4.00;nan;100386.94;4990135;28;20017;-85
2023/02/22 01:55:41;;;;;;;;;;;;;;;3.99;nan;100380.03;4983282;28;20024;-85
2023/02/22 01:58:07;;;;;;;;;;;;;;;3.97;nan;100374.09;4979137;28;19957;-86
2023/02/22 02:00:33;;;;;;;;;;;;;;;3.95;nan;100374.19;4976103;28;19962;-84
2023/02/22 02:03:07;;;;;;;;;;;;;;;3.93;nan;100370.88;4979055;28;19918;-85
2023/02/22 02:05:36;;;;;;;;;;;;;;;3.90;nan;100372.88;4998902;28;19928;-84
2023/02/22 02:08:13;;;;;;;;;;;;;;;3.88;nan;100366.91;4997818;28;19924;-86
2023/02/22 02:10:40;;;;;;;;;;;;;;;3.80;nan;100368.31;4976269;28;19918;-84
2023/02/22 02:13:06;;;;;;;;;;;;;;;3.77;nan;100370.31;4975599;28;19946;-85
2023/02/22 02:15:32;;;;;;;;;;;;;;;3.73;nan;100364.47;4975809;28;20367;-84
2023/02/22 02:17:59;;;;;;;;;;;;;;;3.69;nan;100360.41;5001571;28;19945;-84
2023/02/22 02:20:47;;;;;;;;;;;;;;;3.65;nan;100363.34;4971086;28;19922;-85
2023/02/22 02:23:24;;;;;;;;;;;;;;;3.61;nan;100360.97;4970947;28;19917;-85
2023/02/22 02:26:07;;;;;;;;;;;;;;;3.58;nan;100353.34;4984489;28;19972;-85
2023/02/22 02:28:48;;;;;;;;;;;;;;;3.56;nan;100347.41;4972854;28;19917;-84
2023/02/22 02:31:22;;;;;;;;;;;;;;;3.54;nan;100343.22;4998709;28;19925;-85
2023/02/22 02:33:59;;;;;;;;;;;;;;;3.49;nan;100351.41;4999172;28;19921;-85
2023/02/22 02:36:30;;;;;;;;;;;;;;;3.45;nan;100343.88;4974195;28;19918;-85
2023/02/22 02:39:02;;;;;;;;;;;;;;;3.45;nan;100349.13;4982659;28;19945;-84
2023/02/22 02:41:28;;;;;;;;;;;;;;;3.43;nan;100341.38;5002348;28;20068;-84
2023/02/22 02:43:59;;;;;;;;;;;;;;;3.43;nan;100338.75;5005982;28;19917;-85
2023/02/22 02:46:41;;;;;;;;;;;;;;;3.43;nan;100335.31;4982033;28;19924;-84
2023/02/22 02:49:10;;;;;;;;;;;;;;;3.47;nan;100332.38;4998942;28;19917;-84
2023/02/22 02:51:43;;;;;;;;;;;;;;;3.50;nan;100328.69;4974371;28;19942;-84
2023/02/22 02:54:09;;;;;;;;;;;;;;;3.53;nan;100329.31;4973354;28;20275;-83
2023/02/22 02:56:35;;;;;;;;;;;;;;;3.56;nan;100325.66;4998230;28;19973;-82
2023/02/22 02:59:00;;;;;;;;;;;;;;;3.57;nan;100327.31;4976422;28;20571;-83
2023/02/22 03:01:42;;;;;;;;;;;;;;;3.51;nan;100323.38;4980886;28;19950;-83
2023/02/22 03:04:13;;;;;;;;;;;;;;;3.44;nan;100321.31;4978401;28;20397;-84
2023/02/22 03:07:15;;;;;;;;;;;;;;;3.34;nan;100329.00;4996017;28;20276;-84
2023/02/22 03:09:43;;;;;;;;;;;;;;;3.25;nan;100330.47;4893552;29;20596;-84
2023/02/22 03:12:11;;;;;;;;;;;;;;;3.18;nan;100331.84;4979301;28;19913;-84
2023/02/22 03:14:37;;;;;;;;;;;;;;;3.14;nan;100336.44;4972042;28;19962;-83
2023/02/22 03:17:15;;;;;;;;;;;;;;;3.08;nan;100326.44;4976596;28;20391;-84
2023/02/22 03:19:51;;;;;;;;;;;;;;;3.02;nan;100329.47;4980545;28;19926;-84
2023/02/22 03:22:47;;;;;;;;;;;;;;;2.97;nan;100328.97;4998170;28;19921;-85
2023/02/22 03:25:29;;;;;;;;;;;;;;;2.94;nan;100334.44;4991323;28;19918;-84
2023/02/22 03:28:01;;;;;;;;;;;;;;;2.90;nan;100325.97;4983734;28;19944;-84
2023/02/22 03:30:30;;;;;;;;;;;;;;;2.89;nan;100324.31;4998636;28;19967;-84
2023/02/22 03:32:59;;;;;;;;;;;;;;;2.88;nan;100329.63;4991324;28;19954;-84
2023/02/22 03:35:29;;;;;;;;;;;;;;;2.87;nan;100326.19;4983398;28;19918;-85
2023/02/22 03:37:57;;;;;;;;;;;;;;;2.85;nan;100328.06;4981231;28;19918;-85
2023/02/22 03:40:26;;;;;;;;;;;;;;;2.83;nan;100335.16;4980520;28;19932;-85
2023/02/22 03:42:55;;;;;;;;;;;;;;;2.79;nan;100330.25;4980350;28;19925;-84
2023/02/22 03:45:23;;;;;;;;;;;;;;;2.79;nan;100336.34;4981894;28;19932;-84
2023/02/22 03:47:51;;;;;;;;;;;;;;;2.79;nan;100328.50;4999518;28;19917;-85
2023/02/22 03:50:19;;;;;;;;;;;;;;;2.81;nan;100317.94;4993587;28;19941;-85
2023/02/22 03:52:46;;;;;;;;;;;;;;;2.84;nan;100317.75;4981147;28;19999;-85
2023/02/22 03:55:11;;;;;;;;;;;;;;;2.83;nan;100321.28;4999315;28;20000;-85
2023/02/22 03:57:40;;;;;;;;;;;;;;;2.84;nan;100315.13;4988409;28;19906;-85
2023/02/22 04:00:09;;;;;;;;;;;;;;;2.83;nan;100316.06;4989967;28;19929;-83
2023/02/22 04:02:35;;;;;;;;;;;;;;;2.82;nan;100310.00;4990579;28;19926;-85
2023/02/22 04:05:00;;;;;;;;;;;;;;;2.79;nan;100314.59;5003116;28;19949;-85
2023/02/22 04:07:26;;;;;;;;;;;;;;;2.76;nan;100307.81;4985758;28;19917;-84
2023/02/22 04:09:51;;;;;;;;;;;;;;;2.72;nan;100307.19;4986988;28;19918;-85
2023/02/22 04:12:17;;;;;;;;;;;;;;;2.70;nan;100305.66;5000552;28;19970;-84
2023/02/22 04:14:42;;;;;;;;;;;;;;;2.68;nan;100305.72;4994585;28;20009;-84
2023/02/22 04:17:08;;;;;;;;;;;;;;;2.68;nan;100299.69;4984460;28;20175;-84
2023/02/22 04:19:33;;;;;;;;;;;;;;;2.66;nan;100309.41;4982763;28;19921;-85
2023/02/22 04:21:59;;;;;;;;;;;;;;;2.64;nan;100306.88;4985376;28;19922;-87
2023/02/22 04:24:24;;;;;;;;;;;;;;;2.61;nan;100295.84;4991655;28;19918;-86
2023/02/22 04:26:49;;;;;;;;;;;;;;;2.57;nan;100295.19;5009837;28;20457;-86
2023/02/22 04:29:15;;;;;;;;;;;;;;;2.55;nan;100297.06;4989955;28;19927;-87
2023/02/22 04:31:40;;;;;;;;;;;;;;;2.53;nan;100294.59;4988096;28;19979;-85
2023/02/22 04:34:05;;;;;;;;;;;;;;;2.51;nan;100300.84;4991096;28;19918;-88
2023/02/22 04:36:31;;;;;;;;;;;;;;;2.50;nan;100296.56;4987737;28;20008;-86
2023/02/22 04:38:57;;;;;;;;;;;;;;;2.48;nan;100301.03;4989473;28;19929;-87
2023/02/22 04:41:22;;;;;;;;;;;;;;;2.48;nan;100301.03;4988857;28;19928;-88
2023/02/22 04:43:48;;;;;;;;;;;;;;;2.47;nan;100302.00;4988505;28;19918;-87
2023/02/22 04:46:13;;;;;;;;;;;;;;;2.49;nan;100300.94;5007030;28;19918;-87
2023/02/22 04:48:38;;;;;;;;;;;;;;;2.52;nan;100303.34;4994574;28;19917;-86
2023/02/22 04:51:04;;;;;;;;;;;;;;;2.54;nan;100303.25;4994375;28;19918;-86
2023/02/22 04:53:29;;;;;;;;;;;;;;;2.56;nan;100303.97;4994799;28;19922;-86
2023/02/22 04:55:55;;;;;;;;;;;;;;;2.58;nan;100306.50;5010855;28;19917;-85
2023/02/22 04:58:20;;;;;;;;;;;;;;;2.56;nan;100314.41;4987771;28;20009;-85
2023/02/22 05:00:46;;;;;;;;;;;;;;;2.58;nan;100309.09;4988531;28;20007;-85
2023/02/22 05:03:11;;;;;;;;;;;;;;;2.57;nan;100305.63;4988537;28;19972;-85
2023/02/22 05:05:37;;;;;;;;;;;;;;;2.55;nan;100310.97;4988477;28;20219;-85
2023/02/22 05:08:02;;;;;;;;;;;;;;;2.51;nan;100304.28;4989176;28;19975;-86
2023/02/22 05:10:28;;;;;;;;;;;;;;;2.50;nan;100305.25;4988824;28;19917;-85
2023/02/22 05:12:53;;;;;;;;;;;;;;;2.48;nan;100316.72;4987217;28;19925;-84
2023/02/22 05:15:20;;;;;;;;;;;;;;;2.44;nan;100307.44;5004123;28;19917;-85
2023/02/22 05:17:46;;;;;;;;;;;;;;;2.43;nan;100305.75;5003892;28;19917;-84
2023/02/22 05:20:24;;;;;;;;;;;;;;;2.42;nan;100306.69;4985612;28;19924;-85
2023/02/22 05:22:54;;;;;;;;;;;;;;;2.39;nan;100306.91;4987476;28;19957;-84
2023/02/22 05:25:19;;;;;;;;;;;;;;;2.38;nan;100300.00;4987935;28;20310;-84
2023/02/22 05:27:52;;;;;;;;;;;;;;;2.39;nan;100302.53;5005188;28;19918;-83
2023/02/22 05:30:19;;;;;;;;;;;;;;;2.40;nan;100298.97;4988926;28;19940;-85
2023/02/22 05:32:45;;;;;;;;;;;;;;;2.40;nan;100298.13;4966316;28;19921;-84
2023/02/22 05:35:13;;;;;;;;;;;;;;;2.41;nan;100299.78;5003136;28;19933;-85
2023/02/22 05:37:39;;;;;;;;;;;;;;;2.41;nan;100291.97;5005847;28;19924;-84
2023/02/22 05:40:05;;;;;;;;;;;;;;;2.39;nan;100288.66;4986851;28;19918;-84
2023/02/22 05:42:31;;;;;;;;;;;;;;;2.43;nan;100287.47;4987883;28;20016;-85
2023/02/22 05:44:59;;;;;;;;;;;;;;;2.44;nan;100287.38;4986948;28;19942;-84
2023/02/22 05:47:25;;;;;;;;;;;;;;;2.43;nan;100282.25;4987310;28;19917;-84
2023/02/22 05:49:51;;;;;;;;;;;;;;;2.39;nan;100286.03;4986389;28;19921;-83
2023/02/22 05:52:17;;;;;;;;;;;;;;;2.31;nan;100284.78;4982084;28;19988;-84
2023/02/22 05:54:42;;;;;;;;;;;;;;;2.23;nan;100279.25;4986741;28;19949;-85
2023/02/22 05:57:08;;;;;;;;;;;;;;;2.15;nan;100278.94;4985627;28;20016;-84
2023/02/22 05:59:33;;;;;;;;;;;;;;;2.13;nan;100279.03;4984411;28;19917;-84
2023/02/22 06:01:59;;;;;;;;;;;;;;;2.10;nan;100275.81;4993536;28;19922;-85
2023/02/22 06:04:25;;;;;;;;;;;;;;;2.09;nan;100284.56;4983203;28;19917;-86
2023/02/22 06:06:50;;;;;;;;;;;;;;;2.08;nan;100281.13;5000819;28;19925;-84
2023/02/22 06:09:16;;;;;;;;;;;;;;;2.10;nan;100281.03;4984422;28;19918;-84
2023/02/22 06:11:41;;;;;;;;;;;;;;;2.15;nan;100284.16;4985296;28;19944;-85
2023/02/22 06:14:07;;;;;;;;;;;;;;;2.19;nan;100288.22;5001388;28;19965;-85
2023/02/22 06:16:32;;;;;;;;;;;;;;;2.21;nan;100285.50;4983484;28;19918;-84
2023/02/22 06:18:58;;;;;;;;;;;;;;;2.21;nan;100293.34;4983000;28;20234;-84
2023/02/22 06:21:23;;;;;;;;;;;;;;;2.21;nan;100294.16;4991491;28;19921;-85
2023/02/22 06:23:49;;;;;;;;;;;;;;;2.20;nan;100300.34;4997407;28;20414;-85
2023/02/22 06:26:15;;;;;;;;;;;;;;;2.17;nan;100294.47;4996496;28;19927;-85
2023/02/22 06:28:40;;;;;;;;;;;;;;;2.17;nan;100304.91;4980505;28;19925;-84
2023/02/22 06:31:05;;;;;;;;;;;;;;;2.16;nan;100311.91;4999190;28;20346;-85
2023/02/22 06:33:31;;;;;;;;;;;;;;;2.20;nan;100312.56;4982718;28;19932;-84
2023/02/22 06:35:56;;;;;;;;;;;;;;;2.24;nan;100325.28;4965463;28;20567;-84
2023/02/22 06:38:22;;;;;;;;;;;;;;;2.32;nan;100324.75;4994331;28;19928;-84
2023/02/22 06:40:47;;;;;;;;;;;;;;;2.36;nan;100318.41;4998078;28;19933;-84
2023/02/22 06:43:12;;;;;;;;;;;;;;;2.44;nan;100318.72;4981217;28;19917;-83
2023/02/22 06:45:37;;;;;;;;;;;;;;;2.53;nan;100328.53;5007672;28;19925;-85
2023/02/22 06:48:03;;;;;;;;;;;;;;;2.62;nan;100321.84;4984036;28;20387;-84
2023/02/22 06:50:30;;;;;;;;;;;;;;;2.69;nan;100335.28;4995554;28;19918;-85
2023/02/22 06:52:55;;;;;;;;;;;;;;;2.79;nan;100328.50;4978690;28;19918;-84
2023/02/22 06:55:22;;;;;;;;;;;;;;;2.82;nan;100332.69;5000960;28;19921;-83
2023/02/22 06:57:47;;;;;;;;;;;;;;;2.86;nan;100329.75;5000101;28;20382;-84
2023/02/22 07:00:14;;;;;;;;;;;;;;;2.90;nan;100328.56;4982035;28;19953;-84
2023/02/22 07:02:39;;;;;;;;;;;;;;;2.98;nan;100333.28;4982955;28;19922;-85
2023/02/22 07:05:04;;;;;;;;;;;;;;;3.07;nan;100334.38;4994526;28;20445;-86
2023/02/22 07:07:30;;;;;;;;;;;;;;;3.15;nan;100337.31;4996017;28;19933;-84
2023/02/22 07:09:55;;;;;;;;;;;;;;;3.20;nan;100337.81;4978465;28;19928;-84
2023/02/22 07:12:20;;;;;;;;;;;;;;;3.26;nan;100341.75;4994924;28;19929;-84
2023/02/22 07:14:45;;;;;;;;;;;;;;;3.32;nan;100347.38;4977313;28;19929;-84
2023/02/22 07:17:11;;;;;;;;;;;;;;;3.45;nan;100339.50;4978286;28;19929;-84
2023/02/22 07:19:36;;;;;;;;;;;;;;;3.60;nan;100348.03;4996032;28;19918;-85
2023/02/22 07:22:01;;;;;;;;;;;;;;;3.75;nan;100346.06;4996064;28;19922;-86
2023/02/22 07:24:29;;;;;;;;;;;;;;;3.87;nan;100350.41;4975810;28;19917;-85
2023/02/22 07:26:54;;;;;;;;;;;;;;;3.95;nan;100350.66;4996789;28;19953;-84
2023/02/22 07:29:21;;;;;;;;;;;;;;;4.04;nan;100336.88;4995746;28;19922;-85
2023/02/22 07:31:46;;;;;;;;;;;;;;;4.14;nan;100342.25;4995344;28;20185;-84
2023/02/22 07:34:13;;;;;;;;;;;;;;;4.25;nan;100350.16;4991879;28;20004;-86
2023/02/22 07:36:38;;;;;;;;;;;;;;;4.35;nan;100346.84;4968990;28;19975;-86
2023/02/22 07:39:03;;;;;;;;;;;;;;;4.46;nan;100342.47;4989315;28;19917;-85
2023/02/22 07:41:28;;;;;;;;;;;;;;;4.57;nan;100339.00;4986876;28;19922;-84
2023/02/22 07:43:53;;;;;;;;;;;;;;;4.70;nan;100336.28;4975812;28;19948;-85
2023/02/22 07:46:19;;;;;;;;;;;;;;;4.81;nan;100338.91;4971000;28;19918;-84
2023/02/22 07:48:44;;;;;;;;;;;;;;;4.93;nan;100338.91;4991122;28;19955;-84
2023/02/22 07:51:10;;;;;;;;;;;;;;;5.05;nan;100343.16;4984256;28;20253;-84
2023/02/22 07:53:35;;;;;;;;;;;;;;;5.16;nan;100335.31;4968150;28;19918;-84
2023/02/22 07:56:01;;;;;;;;;;;;;;;5.28;nan;100341.38;4974289;28;19972;-84
2023/02/22 07:58:27;;;;;;;;;;;;;;;5.40;nan;100350.03;4991581;28;19922;-84
2023/02/22 08:00:53;;;;;;;;;;;;;;;5.49;nan;100344.88;4986999;28;19948;-82
2023/02/22 08:03:19;;;;;;;;;;;;;;;5.60;nan;100335.31;4985422;28;20580;-84
2023/02/22 08:05:46;;;;;;;;;;;;;;;5.74;nan;100330.63;4976732;28;19924;-84
2023/02/22 08:08:11;;;;;;;;;;;;;;;5.89;nan;100339.03;4987863;28;20387;-83
2023/02/22 08:10:36;;;;;;;;;;;;;;;6.01;nan;100337.22;4970039;28;19941;-85
2023/02/22 08:13:02;;;;;;;;;;;;;;;6.11;nan;100338.09;4991573;28;19924;-83
2023/02/22 08:15:29;;;;;;;;;;;;;;;6.25;nan;100344.00;4988016;28;20320;-85
2023/02/22 08:17:56;;;;;;;;;;;;;;;6.31;nan;100335.59;4965488;28;19924;-84
2023/02/22 08:20:21;;;;;;;;;;;;;;;6.43;nan;100345.06;4988167;28;20020;-84
2023/02/22 08:22:47;;;;;;;;;;;;;;;6.50;nan;100340.13;4983600;28;19961;-84
2023/02/22 08:25:16;;;;;;;;;;;;;;;6.60;nan;100341.00;4973479;28;19922;-85
2023/02/22 08:27:42;;;;;;;;;;;;;;;6.69;nan;100342.03;4990226;28;19918;-84
2023/02/22 08:30:09;;;;;;;;;;;;;;;6.81;nan;100333.91;4993210;28;20334;-84
2023/02/22 08:32:35;;;;;;;;;;;;;;;6.90;nan;100339.38;4988071;28;19918;-84
2023/02/22 08:35:01;;;;;;;;;;;;;;;6.97;nan;100337.88;4976426;28;19921;-83
2023/02/22 08:37:26;;;;;;;;;;;;;;;7.02;nan;100341.75;4988464;28;19925;-84
2023/02/22 08:39:52;;;;;;;;;;;;;;;7.05;nan;100337.19;4969543;28;19918;-84
2023/02/22 08:42:17;;;;;;;;;;;;;;;7.09;nan;100331.53;4991047;28;19945;-85
2023/02/22 08:44:43;;;;;;;;;;;;;;;7.18;nan;100329.91;4968718;28;19952;-83
2023/02/22 08:47:08;;;;;;;;;;;;;;;7.29;nan;100334.22;4992772;28;19949;-82
2023/02/22 08:49:33;;;;;;;;;;;;;;;7.36;nan;100338.78;4997401;28;20355;-83
2023/02/22 08:51:58;;;;;;;;;;;;;;;7.43;nan;100328.56;4974621;28;20252;-83
2023/02/22 08:54:24;;;;;;;;;;;;;;;7.53;nan;100336.47;4974566;28;19922;-81
2023/02/22 08:56:49;;;;;;;;;;;;;;;7.62;nan;100348.81;4974002;28;19918;-84
2023/02/22 08:59:15;;;;;;;;;;;;;;;7.71;nan;100345.34;4993501;28;20027;-80
2023/02/22 09:01:40;;;;;;;;;;;;;;;7.82;nan;100341.75;4989442;28;19925;-82
2023/02/22 09:04:05;;;;;;;;;;;;;;;7.95;nan;100352.84;4988132;28;19952;-83
2023/02/22 09:06:31;;;;;;;;;;;;;;;8.05;nan;100344.94;4987320;28;20203;-83
2023/02/22 09:08:56;;;;;;;;;;;;;;;8.15;nan;100344.91;4989145;28;19918;-84
2023/02/22 09:11:21;;;;;;;;;;;;;;;8.24;nan;100338.81;4970718;28;19917;-83
2023/02/22 09:13:46;;;;;;;;;;;;;;;8.33;nan;100342.41;4974071;28;19941;-82
2023/02/22 09:16:11;;;;;;;;;;;;;;;8.45;nan;100334.22;4989080;28;19932;-81
2023/02/22 09:18:37;;;;;;;;;;;;;;;8.55;nan;100336.00;4972345;28;20016;-83
2023/02/22 09:21:02;;;;;;;;;;;;;;;8.65;nan;100337.63;4986001;28;19922;-81
2023/02/22 09:23:28;;;;;;;;;;;;;;;8.70;nan;100339.84;4991800;28;19918;-84
2023/02/22 09:25:53;;;;;;;;;;;;;;;8.79;nan;100330.22;4971283;28;19918;-83
2023/02/22 09:28:19;;;;;;;;;;;;;;;8.85;nan;100335.75;4975235;28;20291;-81
2023/02/22 09:30:44;;;;;;;;;;;;;;;8.97;nan;100344.31;4973556;28;19937;-83
2023/02/22 09:33:11;;;;;;;;;;;;;;;9.11;nan;100322.72;4989451;28;19984;-81
2023/02/22 09:35:40;;;;;;;;;;;;;;;9.33;nan;100321.47;4982432;28;19918;-81
2023/02/22 09:38:06;;;;;;;;;;;;;;;9.54;nan;100315.09;4990132;28;19965;-84
2023/02/22 09:40:32;;;;;;;;;;;;;;;9.68;nan;100313.75;4990092;28;19918;-83
2023/02/22 09:43:30;;;;;;;;;;;;;;;9.78;nan;100311.84;4993102;28;20775;-87
2023/02/22 09:46:04;;;;;;;;;;;;;;;9.89;nan;100308.97;4962980;28;19917;-84
2023/02/22 09:48:33;;;;;;;;;;;;;;;10.03;nan;100302.28;4996348;28;19918;-84
2023/02/22 09:51:00;;;;;;;;;;;;;;;10.22;nan;100306.56;4983198;28;19917;-84
2023/02/22 09:53:31;;;;;;;;;;;;;;;10.24;nan;100304.59;4998547;28;20032;-84
2023/02/22 09:56:03;;;;;;;;;;;;;;;10.40;nan;100301.25;4976372;28;20083;-84
2023/02/22 09:58:37;;;;;;;;;;;;;;;10.51;nan;100297.50;4979405;28;20123;-84
2023/02/22 10:01:18;;;;;;;;;;;;;;;10.63;nan;100291.81;4999365;28;19969;-84
2023/02/22 10:03:46;;;;;;;;;;;;;;;10.71;nan;100292.84;4978832;28;19925;-84
2023/02/22 10:06:14;;;;;;;;;;;;;;;10.80;nan;100294.53;4999307;28;19929;-84
2023/02/22 10:08:40;;;;;;;;;;;;;;;10.94;nan;100298.38;4980354;28;19953;-84
2023/02/22 10:11:21;;;;;;;;;;;;;;;11.00;nan;100295.09;4999786;28;20012;-85
2023/02/22 10:14:08;;;;;;;;;;;;;;;11.01;nan;100288.81;4996884;28;19918;-85
2023/02/22 10:16:33;;;;;;;;;;;;;;;11.09;nan;100294.13;4992055;28;19921;-84
2023/02/22 10:19:17;;;;;;;;;;;;;;;11.19;nan;100294.00;4981111;28;20238;-85
2023/02/22 10:21:56;;;;;;;;;;;;;;;11.39;nan;100294.53;4996110;28;19998;-84
2023/02/22 10:24:23;;;;;;;;;;;;;;;11.55;nan;100291.09;4994457;28;19962;-85
2023/02/22 10:26:49;;;;;;;;;;;;;;;11.67;nan;100279.19;4983520;28;19918;-85
2023/02/22 10:29:38;;;;;;;;;;;;;;;11.69;nan;100279.84;4997467;28;19941;-84
2023/02/22 10:32:04;;;;;;;;;;;;;;;11.89;nan;100288.31;4973185;28;19980;-85
2023/02/22 10:34:32;;;;;;;;;;;;;;;11.96;nan;100283.19;4993180;28;19977;-85
2023/02/22 10:37:17;;;;;;;;;;;;;;;12.19;nan;100270.91;4996242;28;20151;-85
2023/02/22 10:39:44;;;;;;;;;;;;;;;12.64;nan;100282.72;4977859;28;19925;-85
2023/02/22 10:42:09;;;;;;;;;;;;;;;13.29;nan;100278.94;4971712;28;19921;-84
2023/02/22 10:44:35;;;;;;;;;;;;;;;13.78;nan;100275.13;4979759;28;19960;-84
2023/02/22 10:47:02;;;;;;;;;;;;;;;14.43;nan;100273.66;4983707;28;19922;-85
2023/02/22 10:49:33;;;;;;;;;;;;;;;15.09;nan;100276.38;4998285;28;19924;-85
2023/02/22 10:52:00;;;;;;;;;;;;;;;15.75;nan;100270.91;4977905;28;19925;-84
2023/02/22 10:54:29;;;;;;;;;;;;;;;16.20;nan;100265.31;4993578;28;19929;-84
2023/02/22 10:56:55;;;;;;;;;;;;;;;16.80;nan;100276.34;4983665;28;19968;-85
2023/02/22 10:59:26;;;;;;;;;;;;;;;17.22;nan;100264.59;4996905;28;19961;-84
2023/02/22 11:01:52;;;;;;;;;;;;;;;17.47;nan;100270.22;4986485;28;19964;-85
2023/02/22 11:04:20;;;;;;;;;;;;;;;17.77;nan;100265.28;5001125;28;19925;-85
2023/02/22 11:06:47;;;;;;;;;;;;;;;18.03;nan;100264.47;4985045;28;19952;-85
2023/02/22 11:09:22;;;;;;;;;;;;;;;17.94;nan;100260.38;4999411;28;19933;-86
2023/02/22 11:11:48;;;;;;;;;;;;;;;18.96;nan;100255.41;4986615;28;19928;-85
2023/02/22 11:14:27;;;;;;;;;;;;;;;19.58;nan;100262.88;5003319;28;19913;-84
2023/02/22 11:16:53;;;;;;;;;;;;;;;20.03;nan;100077.56;5000241;28;19925;-85
2023/02/22 11:19:29;;;;;;;;;;;;;;;20.47;nan;100079.03;4984126;28;19957;-85
2023/02/22 11:22:10;;;;;;;;;;;;;;;20.64;nan;100073.91;4980191;28;20497;-85
2023/02/22 11:24:50;;;;;;;;;;;;;;;20.70;nan;100093.66;4979281;28;19945;-85
2023/02/22 11:27:15;;;;;;;;;;;;;;;;;;4995753;28;19922;-85
2023/02/22 11:29:49;;;;;;;;;;;;;;;20.63;nan;100071.44;4998996;28;19966;-84
2023/02/22 11:32:20;;;;;;;;;;;;;;;20.46;nan;100072.03;4971213;28;20020;-85
2023/02/22 11:34:45;;;;;;;;;;;;;;;20.46;nan;100055.13;4989772;28;19918;-84
2023/02/22 11:37:10;;;;;;;;;;;;;;;;;;4995605;28;19924;-85
2023/02/22 11:39:37;;;;;;;;;;;;;;;19.99;nan;100044.16;4982560;28;19918;-85
2023/02/22 11:42:22;;;;;;;;;;;;;;;19.75;nan;100054.75;4981149;28;19969;-85
2023/02/22 11:44:47;;;;;;;;;;;;;;;19.43;nan;100073.63;4987120;28;19924;-84
2023/02/22 11:47:13;;;;;;;;;;;;;;;18.94;nan;100221.81;4988384;28;19917;-85
2023/02/22 11:49:41;;;;;;;;;;;;;;;18.33;nan;100223.91;4974311;28;19922;-84
2023/02/22 11:52:27;;;;;;;;;;;;;;;17.88;nan;100223.75;4987723;28;20403;-85
2023/02/22 11:55:08;;;;;;;;;;;;;;;17.53;nan;100223.13;4994961;28;20310;-84
2023/02/22 11:57:41;;;;;;;;;;;;;;;17.42;nan;100221.84;4994681;28;19917;-84
2023/02/22 12:00:23;;;;;;;;;;;;;;;17.41;nan;100212.19;4993571;28;20387;-84
2023/02/22 12:02:51;;;;;;;;;;;;;;;17.34;nan;100209.53;4993234;28;19926;-85
2023/02/22 12:05:25;;;;;;;;;;;;;;;17.08;nan;100209.47;4996644;28;19918;-84
2023/02/22 12:07:51;;;;;;;;;;;;;;;16.91;nan;100201.84;4979123;28;19928;-84
2023/02/22 12:10:19;;;;;;;;;;;;;;;16.97;nan;100211.72;4992361;28;19960;-84
2023/02/22 12:12:50;;;;;;;;;;;;;;;16.91;nan;100201.00;4987770;28;19940;-85
2023/02/22 12:15:28;;;;;;;;;;;;;;;16.76;nan;100193.94;4987876;28;20059;-84
2023/02/22 12:18:06;;;;;;;;;;;;;;;16.62;nan;100194.94;4996206;28;20004;-85
2023/02/22 12:20:52;;;;;;;;;;;;;;;16.36;nan;100190.28;4997339;28;19981;-85
2023/02/22 12:23:22;;;;;;;;;;;;;;;16.18;nan;100190.81;4985082;28;19953;-85
2023/02/22 12:25:59;;;;;;;;;;;;;;;16.24;nan;100192.69;4997027;28;20012;-84
2023/02/22 12:28:46;;;;;;;;;;;;;;;15.97;nan;100185.53;5000274;28;19917;-83
2023/02/22 12:31:34;;;;;;;;;;;;;;;15.70;nan;100183.50;4978982;28;19925;-83
2023/02/22 12:33:59;;;;;;;;;;;;;;;15.54;nan;100183.78;4977419;28;19985;-85
2023/02/22 12:36:31;;;;;;;;;;;;;;;15.57;nan;100182.59;4995955;28;19969;-84
2023/02/22 12:39:03;;;;;;;;;;;;;;;15.38;nan;100184.06;4991887;28;19968;-84
2023/02/22 12:41:37;;;;;;;;;;;;;;;15.44;nan;100178.75;4977856;28;19925;-82
2023/02/22 12:44:08;;;;;;;;;;;;;;;15.48;nan;100182.72;4978233;28;19925;-85
2023/02/22 12:46:36;;;;;;;;;;;;;;;15.37;nan;100179.72;4995605;28;19918;-81
2023/02/22 12:49:01;;;;;;;;;;;;;;;15.39;nan;100183.03;4978781;28;19940;-83
2023/02/22 12:51:42;;;;;;;;;;;;;;;15.41;nan;100176.50;4978085;28;20399;-85
2023/02/22 12:54:30;;;;;;;;;;;;;;;15.43;nan;100176.31;4977030;28;20260;-85
2023/02/22 12:57:01;;;;;;;;;;;;;;;15.41;nan;100163.16;5001572;28;19929;-84
2023/02/22 12:59:33;;;;;;;;;;;;;;;15.33;nan;100165.16;4982079;28;19928;-85
2023/02/22 13:02:02;;;;;;;;;;;;;;;15.28;nan;100163.06;4980310;28;19950;-83
2023/02/22 13:04:30;;;;;;;;;;;;;;;15.33;nan;100157.19;4977286;28;20384;-84
2023/02/22 13:07:08;;;;;;;;;;;;;;;15.33;nan;100159.84;4978947;28;20292;-82
2023/02/22 13:09:51;;;;;;;;;;;;;;;15.32;nan;100161.66;4980789;28;20004;-82
2023/02/22 13:12:17;;;;;;;;;;;;;;;15.32;nan;100152.84;4981886;28;19920;-83